• Join FlightAware (Why Join?)
  • Login
  • US Flag 
07:23PM EDT


 

Airport Tracker/Info


-or-


 

Live Flight TrackerFlight Track Log ✈ UAL5908 ✈ 08-Jun-2013 ✈ KDIK - KDEN

Flight Track Log - Related Links

Times and Time Zones

All times are in EDT time to prevent confusion due to time zone crossing. See the UAL5908 flight status page for this flight to view local times or setup timezone preferences in your user account.

Time Position Orientation Groundspeed Altitude Reporting Facility
EDT Latitude Longitude Course Direction KTS MPH feet Rate Location/Type
09:40AM 46.7272 -102.7608 186° South 246 283 5,300  Level Minneapolis Center
09:41AM 46.6639 -102.7814 193° South 235 270 8,100 2,400 Climbing Minneapolis Center
09:42AM 46.5958 -102.8094 196° South 241 277 10,300 1,440 Climbing Minneapolis Center
09:43AM 46.6915 -102.8340 180° South  Level Estimated
09:43AM 46.5064 -102.8175 184° South 291 335 11,100  Level Minneapolis Center
09:44AM 46.5856 -102.8660 184° South  Level Estimated
09:44AM 46.4086 -102.8278 184° South 336 387 13,200  Level Minneapolis Center
09:45AM 46.4801 -102.8318 167° South  Level FlightAware Approximate
09:45AM 46.3103 -102.8336 182° South 350 403 15,100  Level Minneapolis Center
09:46AM 46.3744 -102.8646 186° South  Level Estimated
09:46AM 46.2100 -102.8403 183° South 357 411 16,800  Level Minneapolis Center
09:47AM 46.0861 -102.8478 182° South 368 423 18,600 2,160 Climbing Minneapolis Center
09:48AM 45.9836 -102.8550 183° South 370 426 21,200 2,100 Climbing Minneapolis Center
09:50AM 45.8856 -102.8594 182° South 360 414 23,000 1,800 Climbing Minneapolis Center
09:51AM 45.7856 -102.8664 183° South 359 413 24,900 1,800 Climbing Minneapolis Center
09:52AM 45.6875 -102.8758 184° South 355 409 26,700 1,860 Climbing Minneapolis Center
09:53AM 45.5903 -102.8828 183° South 352 405 28,800 1,860 Climbing Minneapolis Center
09:54AM 45.5000 -102.8908 184° South 343 395 30,600 2,040 Climbing Minneapolis Center
09:55AM 45.3931 -102.9003 184° South 329 379 33,000 1,140 Climbing Minneapolis Center
09:56AM 45.3047 -102.9067 183° South 321 369 33,000  Level Minneapolis Center
09:57AM 45.2036 -102.9153 183° South 347 399 33,000  Level Minneapolis Center
09:58AM 45.0919 -102.9250 184° South 384 442 33,000  Level Minneapolis Center
09:59AM 44.9761 -102.9333 183° South 407 468 33,000  Level Minneapolis Center
10:00AM 44.8603 -102.9436 184° South 416 479 33,000  Level Minneapolis Center
10:00AM 44.7711 -102.9511 183° South 411 473 33,000  Level Denver Center
10:01AM 44.6583 -102.9592 183° South 407 468 33,000  Level Denver Center
10:02AM 44.5472 -102.9681 183° South 403 464 33,000  Level Denver Center
10:03AM 44.4361 -102.9767 183° South 401 461 33,000 -300 Level Denver Center
10:06AM 44.2106 -102.9961 184° South 406 467 32,100 -360 Descending Denver Center
10:07AM 44.0928 -103.0050 183° South 405 466 32,000 -60 Descending Denver Center
10:08AM 43.9867 -103.0133 183° South 400 460 32,000  Level Denver Center
10:09AM 43.8614 -103.0394 189° South 408 470 32,000  Level Denver Center
10:10AM 43.7522 -103.0642 189° South 411 473 32,000  Level Denver Center
10:11AM 43.6267 -103.0928 189° South 411 473 32,000  Level Denver Center
10:12AM 43.5167 -103.1186 190° South 417 480 32,000  Level Denver Center
10:13AM 43.4072 -103.1442 190° South 418 481 32,000  Level Denver Center
10:14AM 43.2764 -103.1739 189° South 425 489 32,000  Level Denver Center
10:15AM 43.1633 -103.2003 190° South 429 494 32,000  Level Denver Center
10:16AM 43.0311 -103.2303 189° South 429 494 32,000  Level Denver Center
10:17AM 42.9161 -103.2539 189° South 434 499 32,000  Level Denver Center
10:18AM 42.8011 -103.2803 190° South 435 501 32,000  Level Denver Center
10:19AM 42.6472 -103.3156 190° South 437 503 32,000  Level Denver Center
10:20AM 42.5319 -103.3406 189° South 438 504 32,000  Level Denver Center
10:21AM 42.3964 -103.3711 189° South 440 506 32,000  Level Denver Center
10:22AM 42.2808 -103.3961 189° South 439 505 32,000  Level Denver Center
10:23AM 42.1453 -103.4272 190° South 440 506 32,000  Level Denver Center
10:24AM 42.0283 -103.4522 189° South 443 510 32,000  Level Denver Center
10:25AM 41.9117 -103.4772 189° South 441 507 32,000  Level Denver Center
10:26AM 41.7711 -103.4844 182° South 450 518 32,000  Level Denver Center
10:27AM 41.6494 -103.4883 181° South 456 525 32,000  Level Denver Center
10:28AM 41.5064 -103.4914 181° South 459 528 32,000  Level Denver Center
10:29AM 41.3836 -103.4958 182° South 461 531 32,000  Level Denver Center
10:30AM 41.2389 -103.4992 181° South 464 534 32,000  Level Denver Center
10:31AM 41.1147 -103.5006 180° South 465 535 32,000  Level Denver Center
10:32AM 40.9892 -103.5053 182° South 469 540 32,000 -600 Level Denver Center
10:33AM 40.8592 -103.5433 192° South 471 542 30,800 -1,080 Descending Denver Center
10:34AM 40.7433 -103.5989 200° South 449 517 29,800 -1,080 Descending Denver Center
10:35AM 40.6047 -103.6731 202° Southwest 447 514 28,600 -1,620 Descending Denver Center
10:37AM 40.5181 -103.7844 224° Southwest 437 503 26,500 -2,100 Descending Denver Center
10:38AM 40.4378 -103.8936 226° Southwest 419 482 24,300 -2,100 Descending Denver Center
10:39AM 40.3647 -103.9919 226° Southwest 372 428 22,200 -2,100 Descending Denver Center
10:40AM 40.2836 -104.0833 221° Southwest 359 413 20,000 -1,980 Descending Denver Center
10:41AM 40.2136 -104.1589 220° Southwest 329 379 18,200 -1,620 Descending Denver Center
10:42AM 40.1414 -104.2394 220° Southwest 316 364 16,800 -1,320 Descending Denver Center
10:43AM 40.0731 -104.3119 219° Southwest 316 364 15,500 -1,020 Descending Denver Center
10:44AM 40.0064 -104.3853 220° Southwest 315 362 14,700 -1,020 Descending Denver Center
10:45AM 39.9344 -104.4622 219° Southwest 311 358 13,500 -1,200 Descending Denver Center
10:46AM 39.8631 -104.5003 202° Southwest 283 326 12,300 -1,200 Descending Denver Center
10:47AM 39.7892 -104.5008 180° South 266 306 11,100 -1,200 Descending Denver Center
10:48AM 39.7119 -104.5025 181° South 257 296 9,900 -1,020 Descending Denver Center
10:49AM 39.6422 -104.5083 184° South 253 291 9,000 -420 Descending Denver Center
10:50AM 39.5731 -104.5208 188° South 239 275 9,100  Climbing Denver Center
10:51AM 39.5878 -104.5797 288° West 207 238 9,000  Descending Denver Center
10:52AM 39.6383 -104.6158 331° Northwest 206 237 9,100 -300 Climbing Denver Center
10:53AM 39.6964 -104.6436 340° North 208 239 8,500 -1,020 Descending Denver Center
10:54AM 39.7444 -104.6428 North 176 203 7,100 -1,140 Descending Denver Center
10:55AM 39.7892 -104.6419 North 145 167 6,200 -780 Descending Denver Center
10:56AM 39.8264 -104.6417 360° North 134 154 5,500 -720 Descending Denver Center
10:58AM 39.8500 -104.6667 180° South  Level FlightAware Approximate
11:05AM 39.8617 -104.6732 180° South  Level Estimated
11:06AM 39.8617 -104.6732 180° South  Level Estimated
11:07AM 39.8617 -104.6732 180° South  Level Estimated